createdAt,value
2019-02-03T00:00:42.028Z,979.26
2019-02-03T00:01:42.035Z,979.25
2019-02-03T00:02:42.322Z,979.24
2019-02-03T00:03:42.003Z,979.22
2019-02-03T00:04:41.998Z,979.16
2019-02-03T00:05:41.984Z,979.21
2019-02-03T00:06:41.981Z,979.19
2019-02-03T00:07:41.967Z,979.18
2019-02-03T00:08:41.957Z,979.16
2019-02-03T00:09:41.951Z,979.14
2019-02-03T00:10:41.945Z,979.15
2019-02-03T00:11:41.935Z,979.16
2019-02-03T00:12:41.925Z,979.17
2019-02-03T00:13:41.917Z,979.21
2019-02-03T00:14:41.918Z,979.24
2019-02-03T00:15:41.911Z,979.24
2019-02-03T00:16:41.909Z,979.28
2019-02-03T00:17:41.882Z,979.26
2019-02-03T00:18:44.823Z,979.28
2019-02-03T00:19:41.864Z,979.2
2019-02-03T00:20:41.854Z,979.24
2019-02-03T00:21:41.848Z,979.24
2019-02-03T00:22:41.838Z,979.17
2019-02-03T00:23:41.828Z,979.22
2019-02-03T00:24:41.821Z,979.2
2019-02-03T00:25:41.820Z,979.21
2019-02-03T00:26:41.806Z,979.16
2019-02-03T00:27:41.799Z,979.18
2019-02-03T00:28:41.792Z,979.14
2019-02-03T00:29:41.782Z,979.14
2019-02-03T00:30:41.776Z,979.12
2019-02-03T00:31:41.762Z,979.06
2019-02-03T00:32:41.782Z,979.05
2019-02-03T00:33:41.754Z,979.03
2019-02-03T00:34:42.835Z,979.03
2019-02-03T00:35:41.726Z,979.01
2019-02-03T00:36:41.716Z,979.01
2019-02-03T00:37:41.710Z,979.02
2019-02-03T00:38:41.719Z,979.1
2019-02-03T00:39:41.708Z,979.05
2019-02-03T00:40:41.687Z,979.11
2019-02-03T00:41:41.672Z,979.06
2019-02-03T00:42:41.666Z,979.11
2019-02-03T00:43:41.657Z,979.08
2019-02-03T00:44:41.652Z,979.07
2019-02-03T00:45:41.638Z,979.05
2019-02-03T00:46:41.633Z,979.04
2019-02-03T00:47:41.633Z,979.03
2019-02-03T00:48:41.617Z,979.06
2019-02-03T00:49:41.611Z,979.1
2019-02-03T00:50:41.595Z,979.11
2019-02-03T00:51:41.594Z,979.16
2019-02-03T00:52:41.578Z,979.11
2019-02-03T00:53:41.574Z,979.14
2019-02-03T00:54:41.639Z,979.16
2019-02-03T00:55:41.552Z,979.2
2019-02-03T00:56:41.543Z,979.13
2019-02-03T00:57:41.532Z,979.15
2019-02-03T00:58:41.525Z,979.13
2019-02-03T00:59:41.512Z,979.07
2019-02-03T01:00:41.505Z,979.09
2019-02-03T01:01:41.496Z,979.09
2019-02-03T01:02:41.487Z,979.06
2019-02-03T01:03:41.476Z,979.07
2019-02-03T01:04:41.469Z,979.09
2019-02-03T01:05:41.460Z,979.1
2019-02-03T01:06:41.462Z,979.08
2019-02-03T01:07:41.441Z,979.09
2019-02-03T01:08:41.452Z,979.07
2019-02-03T01:09:41.421Z,979.1
2019-02-03T01:10:41.419Z,979.15
2019-02-03T01:11:41.540Z,979.15
2019-02-03T01:12:41.609Z,979.15
2019-02-03T01:13:41.389Z,979.19
2019-02-03T01:14:41.385Z,979.23
2019-02-03T01:15:41.369Z,979.21
2019-02-03T01:16:41.381Z,979.27
2019-02-03T01:17:41.381Z,979.23
2019-02-03T01:18:41.414Z,979.21
2019-02-03T01:19:41.344Z,979.22
2019-02-03T01:20:41.324Z,979.19
2019-02-03T01:21:41.314Z,979.18
2019-02-03T01:22:41.303Z,979.22
2019-02-03T01:23:41.295Z,979.25
2019-02-03T01:24:41.287Z,979.26
2019-02-03T01:25:41.276Z,979.33
2019-02-03T01:26:41.268Z,979.36
2019-02-03T01:27:41.258Z,979.34
2019-02-03T01:28:41.251Z,979.31
2019-02-03T01:29:41.242Z,979.33
2019-02-03T01:30:41.231Z,979.25
2019-02-03T01:31:41.225Z,979.2
2019-02-03T01:32:41.211Z,979.19
2019-02-03T01:33:41.204Z,979.09
2019-02-03T01:34:41.199Z,979.04
2019-02-03T01:35:41.186Z,979.03
2019-02-03T01:36:41.176Z,979.02
2019-02-03T01:37:41.663Z,979.09
2019-02-03T01:38:41.168Z,979.17
2019-02-03T01:39:41.153Z,979.26
2019-02-03T01:40:41.144Z,979.36
2019-02-03T01:41:41.137Z,979.42
2019-02-03T01:42:41.123Z,979.46
2019-02-03T01:43:41.114Z,979.5
2019-02-03T01:44:41.114Z,979.51
2019-02-03T01:45:41.103Z,979.5
2019-02-03T01:46:41.087Z,979.5
2019-02-03T01:47:41.080Z,979.52
2019-02-03T01:48:41.180Z,979.57
2019-02-03T01:49:41.182Z,979.58
2019-02-03T01:50:41.055Z,979.64
2019-02-03T01:51:41.043Z,979.68
2019-02-03T01:52:41.036Z,979.67
2019-02-03T01:53:41.022Z,979.68
2019-02-03T01:54:41.024Z,979.68
2019-02-03T01:55:41.006Z,979.73
2019-02-03T01:56:41.022Z,979.75
2019-02-03T01:57:40.988Z,979.83
2019-02-03T01:58:40.980Z,979.86
2019-02-03T01:59:40.972Z,979.92
2019-02-03T02:00:40.965Z,979.97
2019-02-03T02:01:40.954Z,979.94
2019-02-03T02:02:40.945Z,979.95
2019-02-03T02:03:40.939Z,979.98
2019-02-03T02:04:40.929Z,979.98
2019-02-03T02:05:40.922Z,980.06
2019-02-03T02:06:40.909Z,980.06
2019-02-03T02:07:51.062Z,980.11
2019-02-03T02:08:40.891Z,980.15
2019-02-03T02:09:40.881Z,980.12
2019-02-03T02:10:40.876Z,980.15
2019-02-03T02:11:40.998Z,980.16
2019-02-03T02:12:40.862Z,980.12
2019-02-03T02:13:40.856Z,980.08
2019-02-03T02:14:40.834Z,980.11
2019-02-03T02:15:40.825Z,980.09
2019-02-03T02:16:40.822Z,980.02
2019-02-03T02:17:40.811Z,980.03
2019-02-03T02:18:40.795Z,980.02
2019-02-03T02:19:40.796Z,980.06
2019-02-03T02:20:40.776Z,980.06
2019-02-03T02:21:40.768Z,980.09
2019-02-03T02:22:40.757Z,980.09
2019-02-03T02:23:40.745Z,980.11
2019-02-03T02:24:40.735Z,980.14
2019-02-03T02:25:40.731Z,980.2
2019-02-03T02:26:40.723Z,980.24
2019-02-03T02:27:40.724Z,980.26
2019-02-03T02:28:40.699Z,980.41
2019-02-03T02:29:40.688Z,980.43
2019-02-03T02:30:40.697Z,980.5
2019-02-03T02:31:40.673Z,980.6
2019-02-03T02:32:40.672Z,980.62
2019-02-03T02:33:40.652Z,980.62
2019-02-03T02:34:40.642Z,980.64
2019-02-03T02:35:40.671Z,980.63
2019-02-03T02:36:40.700Z,980.59
2019-02-03T02:37:40.620Z,980.6
2019-02-03T02:38:40.619Z,980.55
2019-02-03T02:39:40.607Z,980.57
2019-02-03T02:40:40.589Z,980.54
2019-02-03T02:41:40.578Z,980.53
2019-02-03T02:42:40.571Z,980.53
2019-02-03T02:43:40.575Z,980.52
2019-02-03T02:44:40.546Z,980.54
2019-02-03T02:45:40.536Z,980.54
2019-02-03T02:46:40.535Z,980.57
2019-02-03T02:47:40.561Z,980.62
2019-02-03T02:48:40.567Z,980.62
2019-02-03T02:49:40.498Z,980.59
2019-02-03T02:50:40.490Z,980.57
2019-02-03T02:51:40.490Z,980.63
2019-02-03T02:52:40.470Z,980.64
2019-02-03T02:53:40.474Z,980.62
2019-02-03T02:54:40.450Z,980.67
2019-02-03T02:55:40.469Z,980.68
2019-02-03T02:56:40.440Z,980.73
2019-02-03T02:57:40.437Z,980.77
2019-02-03T02:58:40.411Z,980.77
2019-02-03T02:59:40.413Z,980.77
2019-02-03T03:00:40.429Z,980.76
2019-02-03T03:01:40.385Z,980.75
2019-02-03T03:02:40.372Z,980.77
2019-02-03T03:03:40.372Z,980.84
2019-02-03T03:04:40.355Z,980.79
2019-02-03T03:05:40.347Z,980.88
2019-02-03T03:06:41.386Z,980.84
2019-02-03T03:07:40.326Z,980.85
2019-02-03T03:08:40.320Z,980.89
2019-02-03T03:09:40.317Z,980.87
2019-02-03T03:10:40.295Z,980.89
2019-02-03T03:11:40.286Z,980.9
2019-02-03T03:12:40.280Z,980.87
2019-02-03T03:13:40.269Z,980.88
2019-02-03T03:14:40.302Z,980.9
2019-02-03T03:15:40.247Z,980.91
2019-02-03T03:16:40.239Z,980.93
2019-02-03T03:17:40.227Z,980.93
2019-02-03T03:18:40.217Z,980.83
2019-02-03T03:19:40.208Z,980.87
2019-02-03T03:20:40.200Z,980.85
2019-02-03T03:21:40.190Z,980.81
2019-02-03T03:22:40.190Z,980.79
2019-02-03T03:23:40.169Z,980.81
2019-02-03T03:24:40.159Z,980.81
2019-02-03T03:25:40.151Z,980.79
2019-02-03T03:26:40.139Z,980.75
2019-02-03T03:27:40.149Z,980.76
2019-02-03T03:28:40.126Z,980.77
2019-02-03T03:29:40.110Z,980.75
2019-02-03T03:30:40.105Z,980.73
2019-02-03T03:31:40.094Z,980.72
2019-02-03T03:32:40.084Z,980.74
2019-02-03T03:33:40.079Z,980.69
2019-02-03T03:34:40.072Z,980.68
2019-02-03T03:35:40.055Z,980.71
2019-02-03T03:36:40.050Z,980.67
2019-02-03T03:37:40.036Z,980.64
2019-02-03T03:38:40.027Z,980.69
2019-02-03T03:39:40.018Z,980.68
2019-02-03T03:40:40.006Z,980.66
2019-02-03T03:41:40.021Z,980.68
2019-02-03T03:42:39.983Z,980.67
2019-02-03T03:43:39.973Z,980.69
2019-02-03T03:44:39.964Z,980.7
2019-02-03T03:45:39.958Z,980.75
2019-02-03T03:46:39.953Z,980.75
2019-02-03T03:47:39.936Z,980.75
2019-02-03T03:48:39.927Z,980.75
2019-02-03T03:49:39.929Z,980.76
2019-02-03T03:50:39.908Z,980.77
2019-02-03T03:51:39.909Z,980.82
2019-02-03T03:52:39.886Z,980.89
2019-02-03T03:53:39.877Z,980.85
2019-02-03T03:54:40.062Z,980.92
2019-02-03T03:55:39.864Z,980.88
2019-02-03T03:56:39.847Z,980.89
2019-02-03T03:57:39.835Z,980.91
2019-02-03T03:58:39.826Z,980.93
2019-02-03T03:59:39.815Z,980.91
2019-02-03T04:00:39.809Z,980.95
2019-02-03T04:01:39.803Z,980.95
2019-02-03T04:02:39.785Z,980.94
2019-02-03T04:03:39.782Z,980.98
2019-02-03T04:04:39.767Z,981
2019-02-03T04:05:39.757Z,981.06
2019-02-03T04:06:39.749Z,981.09
2019-02-03T04:07:39.735Z,981.11
2019-02-03T04:08:44.981Z,981.21
2019-02-03T04:09:39.718Z,981.2
2019-02-03T04:10:39.708Z,981.19
2019-02-03T04:11:39.698Z,981.24
2019-02-03T04:12:39.696Z,981.23
2019-02-03T04:13:39.677Z,981.27
2019-02-03T04:14:39.669Z,981.31
2019-02-03T04:15:39.659Z,981.27
2019-02-03T04:16:39.649Z,981.3
2019-02-03T04:17:39.642Z,981.35
2019-02-03T04:18:39.637Z,981.36
2019-02-03T04:19:39.641Z,981.4
2019-02-03T04:20:39.610Z,981.43
2019-02-03T04:21:39.617Z,981.41
2019-02-03T04:22:39.591Z,981.45
2019-02-03T04:23:39.590Z,981.48
2019-02-03T04:24:39.581Z,981.51
2019-02-03T04:25:39.569Z,981.5
2019-02-03T04:26:39.550Z,981.48
2019-02-03T04:27:39.543Z,981.57
2019-02-03T04:28:39.539Z,981.55
2019-02-03T04:29:39.532Z,981.55
2019-02-03T04:30:39.524Z,981.58
2019-02-03T04:31:39.512Z,981.58
2019-02-03T04:32:39.503Z,981.6
2019-02-03T04:33:39.479Z,981.61
2019-02-03T04:34:39.473Z,981.59
2019-02-03T04:35:39.463Z,981.64
2019-02-03T04:36:39.464Z,981.65
2019-02-03T04:37:39.442Z,981.64
2019-02-03T04:38:39.453Z,981.68
2019-02-03T04:39:39.426Z,981.63
2019-02-03T04:40:39.412Z,981.67
2019-02-03T04:41:39.403Z,981.67
2019-02-03T04:42:39.396Z,981.7
2019-02-03T04:43:39.383Z,981.67
2019-02-03T04:44:39.375Z,981.72
2019-02-03T04:45:39.368Z,981.68
2019-02-03T04:46:39.351Z,981.71
2019-02-03T04:47:39.413Z,981.68
2019-02-03T04:48:39.333Z,981.72
2019-02-03T04:49:39.328Z,981.74
2019-02-03T04:50:39.313Z,981.73
2019-02-03T04:51:39.304Z,981.69
2019-02-03T04:52:39.292Z,981.72
2019-02-03T04:53:39.285Z,981.7
2019-02-03T04:54:39.273Z,981.74
2019-02-03T04:55:39.263Z,981.73
2019-02-03T04:56:39.307Z,981.76
2019-02-03T04:57:39.242Z,981.79
2019-02-03T04:58:39.234Z,981.79
2019-02-03T04:59:39.222Z,981.79
2019-02-03T05:00:39.213Z,981.81
2019-02-03T05:01:39.202Z,981.81
2019-02-03T05:02:39.194Z,981.87
2019-02-03T05:03:39.188Z,981.82
2019-02-03T05:04:39.187Z,981.92
2019-02-03T05:05:39.167Z,981.87
2019-02-03T05:06:39.164Z,981.88
2019-02-03T05:07:40.753Z,981.93
2019-02-03T05:08:39.144Z,981.89
2019-02-03T05:09:39.135Z,981.94
2019-02-03T05:10:39.122Z,981.92
2019-02-03T05:11:39.140Z,981.89
2019-02-03T05:12:39.103Z,981.96
2019-02-03T05:13:39.095Z,981.98
2019-02-03T05:14:39.081Z,982.01
2019-02-03T05:15:39.062Z,982.05
2019-02-03T05:16:39.068Z,982.06
2019-02-03T05:17:39.055Z,982.06
2019-02-03T05:18:39.051Z,982.04
2019-02-03T05:19:39.038Z,982.1
2019-02-03T05:20:39.038Z,982.11
2019-02-03T05:21:39.011Z,982.12
2019-02-03T05:22:39.009Z,982.11
2019-02-03T05:23:38.986Z,982.15
2019-02-03T05:24:38.985Z,982.22
2019-02-03T05:25:38.973Z,982.2
2019-02-03T05:26:38.982Z,982.18
2019-02-03T05:27:38.952Z,982.23
2019-02-03T05:28:38.958Z,982.19
2019-02-03T05:29:38.957Z,982.26
2019-02-03T05:30:38.928Z,982.23
2019-02-03T05:31:38.904Z,982.24
2019-02-03T05:32:38.895Z,982.24
2019-02-03T05:33:38.898Z,982.27
2019-02-03T05:34:38.881Z,982.29
2019-02-03T05:35:38.879Z,982.26
2019-02-03T05:36:38.855Z,982.29
2019-02-03T05:37:38.862Z,982.33
2019-02-03T05:38:38.850Z,982.43
2019-02-03T05:39:38.824Z,982.36
2019-02-03T05:40:38.812Z,982.39
2019-02-03T05:41:38.799Z,982.41
2019-02-03T05:42:38.789Z,982.45
2019-02-03T05:43:38.791Z,982.45
2019-02-03T05:44:38.767Z,982.54
2019-02-03T05:45:38.757Z,982.61
2019-02-03T05:46:38.746Z,982.62
2019-02-03T05:47:38.737Z,982.67
2019-02-03T05:48:38.737Z,982.7
2019-02-03T05:49:38.714Z,982.64
2019-02-03T05:50:38.705Z,982.76
2019-02-03T05:51:38.695Z,982.81
2019-02-03T05:52:38.688Z,982.78
2019-02-03T05:53:38.677Z,982.82
2019-02-03T05:54:38.664Z,982.85
2019-02-03T05:55:38.654Z,982.93
2019-02-03T05:56:38.641Z,982.88
2019-02-03T05:57:38.641Z,982.95
2019-02-03T05:58:38.630Z,983
2019-02-03T05:59:38.618Z,982.98
2019-02-03T06:00:38.600Z,983.02
2019-02-03T06:01:38.597Z,983.02
2019-02-03T06:02:38.581Z,983.1
2019-02-03T06:03:38.574Z,983.08
2019-02-03T06:04:38.564Z,983.13
2019-02-03T06:05:38.567Z,983.16
2019-02-03T06:06:38.537Z,983.19
2019-02-03T06:07:38.523Z,983.18
2019-02-03T06:08:39.321Z,983.21
2019-02-03T06:09:38.517Z,983.25
2019-02-03T06:10:38.495Z,983.3
2019-02-03T06:11:38.486Z,983.28
2019-02-03T06:12:38.476Z,983.33
2019-02-03T06:13:38.464Z,983.47
2019-02-03T06:14:38.458Z,983.4
2019-02-03T06:15:38.446Z,983.41
2019-02-03T06:16:38.435Z,983.42
2019-02-03T06:17:38.423Z,983.5
2019-02-03T06:18:38.411Z,983.52
2019-02-03T06:19:38.403Z,983.54
2019-02-03T06:20:38.402Z,983.57
2019-02-03T06:21:38.382Z,983.62
2019-02-03T06:22:38.379Z,983.64
2019-02-03T06:23:38.366Z,983.68
2019-02-03T06:24:38.350Z,983.7
2019-02-03T06:25:38.363Z,983.7
2019-02-03T06:26:38.328Z,983.73
2019-02-03T06:27:38.317Z,983.83
2019-02-03T06:28:38.307Z,983.87
2019-02-03T06:29:38.294Z,983.88
2019-02-03T06:30:38.286Z,983.92
2019-02-03T06:31:38.289Z,983.94
2019-02-03T06:32:38.267Z,983.95
2019-02-03T06:33:38.260Z,983.97
2019-02-03T06:34:38.247Z,984.01
2019-02-03T06:35:38.235Z,984.04
2019-02-03T06:36:38.229Z,984.06
2019-02-03T06:37:38.216Z,984.1
2019-02-03T06:38:38.199Z,984.11
2019-02-03T06:39:48.069Z,984.15
2019-02-03T06:40:38.178Z,984.16
2019-02-03T06:41:38.170Z,984.15
2019-02-03T06:42:38.157Z,984.21
2019-02-03T06:43:38.149Z,984.25
2019-02-03T06:44:38.138Z,984.34
2019-02-03T06:45:38.143Z,984.33
2019-02-03T06:46:38.116Z,984.4
2019-02-03T06:47:38.108Z,984.44
2019-02-03T06:48:38.094Z,984.48
2019-02-03T06:49:38.083Z,984.47
2019-02-03T06:50:38.072Z,984.47
2019-02-03T06:51:38.064Z,984.53
2019-02-03T06:52:38.062Z,984.57
2019-02-03T06:53:40.046Z,984.63
2019-02-03T06:54:38.040Z,984.65
2019-02-03T06:55:38.021Z,984.72
2019-02-03T06:56:38.009Z,984.68
2019-02-03T06:57:38.002Z,984.82
2019-02-03T06:58:38.031Z,984.8
2019-02-03T06:59:37.982Z,984.8
2019-02-03T07:00:37.965Z,984.81
2019-02-03T07:01:37.958Z,984.87
2019-02-03T07:02:37.947Z,984.86
2019-02-03T07:03:37.937Z,984.94
2019-02-03T07:04:37.928Z,984.99
2019-02-03T07:05:37.914Z,985.04
2019-02-03T07:06:37.902Z,985.06
2019-02-03T07:07:37.892Z,985.09
2019-02-03T07:08:37.881Z,985.19
2019-02-03T07:09:37.872Z,985.17
2019-02-03T07:10:37.858Z,985.18
2019-02-03T07:11:37.848Z,985.23
2019-02-03T07:12:37.844Z,985.24
2019-02-03T07:13:37.830Z,985.33
2019-02-03T07:14:37.813Z,985.35
2019-02-03T07:15:37.807Z,985.33
2019-02-03T07:16:40.694Z,985.37
2019-02-03T07:17:37.785Z,985.44
2019-02-03T07:18:37.779Z,985.49
2019-02-03T07:19:37.762Z,985.49
2019-02-03T07:20:37.762Z,985.48
2019-02-03T07:21:37.741Z,985.52
2019-02-03T07:22:37.730Z,985.52
2019-02-03T07:23:37.717Z,985.54
2019-02-03T07:24:37.706Z,985.59
2019-02-03T07:25:37.706Z,985.6
2019-02-03T07:26:37.694Z,985.63
2019-02-03T07:27:37.676Z,985.71
2019-02-03T07:28:37.664Z,985.66
2019-02-03T07:29:37.665Z,985.76
2019-02-03T07:30:37.644Z,985.79
2019-02-03T07:31:37.635Z,985.79
2019-02-03T07:32:37.618Z,985.78
2019-02-03T07:33:37.614Z,985.81
2019-02-03T07:34:37.598Z,985.87
2019-02-03T07:35:37.589Z,985.86
2019-02-03T07:36:37.580Z,985.86
2019-02-03T07:37:37.569Z,985.88
2019-02-03T07:38:37.555Z,985.92
2019-02-03T07:39:37.554Z,985.95
2019-02-03T07:40:37.533Z,985.93
2019-02-03T07:41:37.527Z,985.98
2019-02-03T07:42:37.524Z,986.03
2019-02-03T07:43:37.518Z,986.08
2019-02-03T07:44:37.490Z,986.06
2019-02-03T07:45:37.491Z,986.06
2019-02-03T07:46:37.471Z,986.02
2019-02-03T07:47:37.459Z,986.11
2019-02-03T07:48:37.449Z,986.06
2019-02-03T07:49:37.444Z,986.06
2019-02-03T07:50:37.434Z,986.03
2019-02-03T07:51:37.416Z,986.08
2019-02-03T07:52:37.411Z,986.08
2019-02-03T07:53:37.391Z,986.1
2019-02-03T07:54:37.395Z,986.09
2019-02-03T07:55:37.374Z,986.16
2019-02-03T07:56:37.416Z,986.16
2019-02-03T07:57:37.447Z,986.23
2019-02-03T07:58:37.340Z,986.25
2019-02-03T07:59:37.326Z,986.27
2019-02-03T08:00:37.314Z,986.25
2019-02-03T08:01:37.312Z,986.3
2019-02-03T08:02:37.294Z,986.36
2019-02-03T08:03:37.282Z,986.32
2019-02-03T08:04:37.275Z,986.34
2019-02-03T08:05:37.261Z,986.37
2019-02-03T08:06:37.257Z,986.41
2019-02-03T08:07:37.236Z,986.39
2019-02-03T08:08:37.228Z,986.45
2019-02-03T08:09:37.215Z,986.43
2019-02-03T08:10:37.205Z,986.43
2019-02-03T08:11:37.193Z,986.48
2019-02-03T08:12:37.182Z,986.47
2019-02-03T08:13:37.172Z,986.47
2019-02-03T08:14:37.162Z,986.46
2019-02-03T08:15:37.151Z,986.52
2019-02-03T08:16:37.145Z,986.54
2019-02-03T08:17:37.205Z,986.57
2019-02-03T08:18:37.123Z,986.57
2019-02-03T08:19:37.103Z,986.65
2019-02-03T08:20:37.094Z,986.7
2019-02-03T08:21:37.084Z,986.66
2019-02-03T08:22:37.071Z,986.67
2019-02-03T08:23:37.058Z,986.71
2019-02-03T08:24:37.054Z,986.7
2019-02-03T08:25:37.042Z,986.73
2019-02-03T08:26:37.026Z,986.73
2019-02-03T08:27:37.016Z,986.78
2019-02-03T08:28:37.004Z,986.82
2019-02-03T08:29:36.997Z,986.84
2019-02-03T08:30:36.991Z,986.87
2019-02-03T08:31:36.999Z,986.91
2019-02-03T08:32:36.982Z,986.95
2019-02-03T08:33:36.949Z,986.96
2019-02-03T08:34:36.943Z,986.98
2019-02-03T08:35:36.930Z,986.99
2019-02-03T08:36:36.922Z,986.96
2019-02-03T08:37:36.904Z,987.01
2019-02-03T08:38:36.900Z,987.02
2019-02-03T08:39:37.993Z,987.04
2019-02-03T08:40:37.490Z,987.06
2019-02-03T08:41:36.861Z,987.11
2019-02-03T08:42:36.850Z,987.1
2019-02-03T08:43:36.840Z,987.17
2019-02-03T08:44:36.827Z,987.17
2019-02-03T08:45:36.823Z,987.18
2019-02-03T08:46:36.806Z,987.24
2019-02-03T08:47:36.797Z,987.3
2019-02-03T08:48:36.783Z,987.3
2019-02-03T08:49:36.771Z,987.32
2019-02-03T08:50:36.759Z,987.4
2019-02-03T08:51:36.764Z,987.39
2019-02-03T08:52:36.737Z,987.42
2019-02-03T08:53:36.730Z,987.46
2019-02-03T08:54:46.547Z,987.43
2019-02-03T08:55:36.706Z,987.41
2019-02-03T08:56:36.693Z,987.53
2019-02-03T08:57:36.684Z,987.53
2019-02-03T08:58:36.669Z,987.55
2019-02-03T08:59:36.660Z,987.6
2019-02-03T09:00:36.653Z,987.58
2019-02-03T09:01:36.639Z,987.6
2019-02-03T09:02:36.626Z,987.62
2019-02-03T09:03:36.616Z,987.65
2019-02-03T09:04:36.611Z,987.68
2019-02-03T09:05:36.596Z,987.62
2019-02-03T09:06:36.592Z,987.71
2019-02-03T09:07:36.582Z,987.77
2019-02-03T09:08:36.585Z,987.81
2019-02-03T09:09:36.553Z,987.77
2019-02-03T09:10:47.721Z,987.78
2019-02-03T09:11:36.543Z,987.81
2019-02-03T09:12:36.526Z,987.82
2019-02-03T09:13:36.523Z,987.84
2019-02-03T09:14:36.498Z,987.86
2019-02-03T09:15:36.494Z,987.82
2019-02-03T09:16:36.472Z,987.88
2019-02-03T09:17:36.462Z,987.92
2019-02-03T09:18:36.470Z,987.93
2019-02-03T09:19:36.438Z,987.94
2019-02-03T09:20:36.427Z,987.94
2019-02-03T09:21:36.428Z,987.98
2019-02-03T09:22:36.407Z,987.95
2019-02-03T09:23:36.406Z,988.02
2019-02-03T09:24:36.399Z,987.93
2019-02-03T09:25:36.373Z,988.01
2019-02-03T09:26:36.376Z,987.98
2019-02-03T09:27:36.351Z,988.04
2019-02-03T09:28:36.340Z,988.04
2019-02-03T09:29:36.458Z,988.06
2019-02-03T09:30:36.318Z,988.05
2019-02-03T09:31:36.307Z,988.09
2019-02-03T09:32:36.299Z,988.08
2019-02-03T09:33:36.286Z,988.1
2019-02-03T09:34:36.274Z,988.12
2019-02-03T09:35:36.264Z,988.12
2019-02-03T09:36:36.254Z,988.17
2019-02-03T09:37:36.251Z,988.15
2019-02-03T09:38:36.231Z,988.22
2019-02-03T09:39:36.221Z,988.21
2019-02-03T09:40:37.268Z,988.24
2019-02-03T09:41:36.200Z,988.25
2019-02-03T09:42:36.197Z,988.25
2019-02-03T09:43:36.177Z,988.27
2019-02-03T09:44:36.165Z,988.3
2019-02-03T09:45:36.158Z,988.26
2019-02-03T09:46:36.146Z,988.31
2019-02-03T09:47:36.135Z,988.27
2019-02-03T09:48:36.122Z,988.34
2019-02-03T09:49:36.114Z,988.35
2019-02-03T09:50:36.101Z,988.37
2019-02-03T09:51:36.102Z,988.37
2019-02-03T09:52:36.092Z,988.42
2019-02-03T09:53:36.068Z,988.38
2019-02-03T09:54:36.057Z,988.39
2019-02-03T09:55:36.047Z,988.45
2019-02-03T09:56:36.037Z,988.52
2019-02-03T09:57:36.028Z,988.5
2019-02-03T09:58:36.017Z,988.55
2019-02-03T09:59:36.006Z,988.55
2019-02-03T10:00:35.993Z,988.59
2019-02-03T10:01:35.984Z,988.61
2019-02-03T10:02:35.974Z,988.58
2019-02-03T10:03:35.965Z,988.56
2019-02-03T10:04:35.951Z,988.66
2019-02-03T10:05:37.167Z,988.66
2019-02-03T10:06:35.948Z,988.69
2019-02-03T10:07:35.919Z,988.7
2019-02-03T10:08:40.516Z,988.69
2019-02-03T10:09:35.910Z,988.73
2019-02-03T10:10:35.891Z,988.71
2019-02-03T10:11:35.883Z,988.81
2019-02-03T10:12:35.867Z,988.76
2019-02-03T10:13:35.858Z,988.81
2019-02-03T10:14:35.854Z,988.83
2019-02-03T10:15:35.849Z,988.8
2019-02-03T10:16:35.831Z,988.86
2019-02-03T10:17:35.816Z,988.9
2019-02-03T10:18:35.804Z,988.91
2019-02-03T10:19:35.795Z,988.89
2019-02-03T10:20:35.783Z,988.98
2019-02-03T10:21:35.775Z,988.98
2019-02-03T10:22:35.761Z,989.02
2019-02-03T10:23:35.754Z,989.01
2019-02-03T10:24:42.083Z,989.05
2019-02-03T10:25:35.730Z,989.09
2019-02-03T10:26:35.730Z,989.1
2019-02-03T10:27:35.712Z,989.1
2019-02-03T10:28:35.700Z,989.08
2019-02-03T10:29:35.701Z,989.1
2019-02-03T10:30:35.679Z,989.12
2019-02-03T10:31:35.667Z,989.14
2019-02-03T10:32:35.659Z,989.14
2019-02-03T10:33:35.683Z,989.16
2019-02-03T10:34:35.701Z,989.14
2019-02-03T10:35:35.626Z,989.21
2019-02-03T10:36:35.615Z,989.21
2019-02-03T10:37:35.608Z,989.2
2019-02-03T10:38:35.595Z,989.24
2019-02-03T10:39:35.586Z,989.2
2019-02-03T10:40:35.576Z,989.19
2019-02-03T10:41:35.564Z,989.22
2019-02-03T10:42:35.561Z,989.25
2019-02-03T10:43:35.575Z,989.28
2019-02-03T10:44:35.536Z,989.28
2019-02-03T10:45:35.522Z,989.3
2019-02-03T10:46:35.520Z,989.24
2019-02-03T10:47:35.506Z,989.29
2019-02-03T10:48:35.491Z,989.28
2019-02-03T10:49:35.486Z,989.3
2019-02-03T10:50:35.473Z,989.3
2019-02-03T10:51:35.461Z,989.32
2019-02-03T10:52:35.457Z,989.31
2019-02-03T10:53:35.448Z,989.36
2019-02-03T10:54:35.440Z,989.32
2019-02-03T10:55:35.427Z,989.35
2019-02-03T10:56:35.472Z,989.4
2019-02-03T10:57:35.403Z,989.4
2019-02-03T10:58:35.400Z,989.4
2019-02-03T10:59:35.401Z,989.42
2019-02-03T11:00:35.388Z,989.38
2019-02-03T11:01:35.371Z,989.46
2019-02-03T11:02:35.350Z,989.44
2019-02-03T11:03:35.341Z,989.5
2019-02-03T11:04:35.327Z,989.5
2019-02-03T11:05:35.314Z,989.5
2019-02-03T11:06:35.303Z,989.55
2019-02-03T11:07:35.293Z,989.53
2019-02-03T11:08:35.284Z,989.52
2019-02-03T11:09:35.271Z,989.52
2019-02-03T11:10:35.263Z,989.57
2019-02-03T11:11:37.067Z,989.58
2019-02-03T11:12:35.242Z,989.61
2019-02-03T11:13:35.230Z,989.57
2019-02-03T11:14:35.220Z,989.58
2019-02-03T11:15:35.211Z,989.67
2019-02-03T11:16:35.208Z,989.57
2019-02-03T11:17:35.190Z,989.65
2019-02-03T11:18:35.186Z,989.61
2019-02-03T11:19:35.169Z,989.64
2019-02-03T11:20:35.174Z,989.68
2019-02-03T11:21:35.158Z,989.63
2019-02-03T11:22:35.140Z,989.68
2019-02-03T11:23:35.135Z,989.67
2019-02-03T11:24:35.129Z,989.64
2019-02-03T11:25:35.107Z,989.72
2019-02-03T11:26:35.101Z,989.74
2019-02-03T11:27:35.087Z,989.75
2019-02-03T11:28:35.078Z,989.74
2019-02-03T11:29:35.066Z,989.82
2019-02-03T11:30:35.060Z,989.84
2019-02-03T11:31:35.044Z,989.81
2019-02-03T11:32:35.034Z,989.86
2019-02-03T11:33:35.136Z,989.85
2019-02-03T11:34:35.018Z,989.9
2019-02-03T11:35:35.003Z,989.79
2019-02-03T11:36:34.996Z,989.76
2019-02-03T11:37:34.987Z,989.83
2019-02-03T11:38:34.980Z,989.8
2019-02-03T11:39:34.966Z,989.81
2019-02-03T11:40:34.951Z,989.83
2019-02-03T11:41:34.940Z,989.89
2019-02-03T11:42:34.936Z,989.82
2019-02-03T11:43:35.022Z,989.89
2019-02-03T11:44:34.909Z,989.84
2019-02-03T11:45:34.903Z,989.85
2019-02-03T11:46:34.898Z,989.88
2019-02-03T11:47:34.878Z,989.87
2019-02-03T11:48:34.877Z,989.82
2019-02-03T11:49:34.863Z,989.89
2019-02-03T11:50:34.906Z,989.95
2019-02-03T11:51:34.841Z,989.96
2019-02-03T11:52:34.839Z,989.94
2019-02-03T11:53:34.817Z,989.92
2019-02-03T11:54:34.815Z,989.89
2019-02-03T11:55:34.803Z,990
2019-02-03T11:56:34.797Z,990.02
2019-02-03T11:57:34.792Z,989.99
2019-02-03T11:58:34.772Z,990.03
2019-02-03T11:59:34.761Z,990.03
2019-02-03T12:00:34.748Z,990.07
2019-02-03T12:01:34.745Z,990.07
2019-02-03T12:02:41.629Z,990.05
2019-02-03T12:03:34.724Z,990.06
2019-02-03T12:04:34.698Z,990.09
2019-02-03T12:05:34.817Z,990.06
2019-02-03T12:06:34.679Z,990.06
2019-02-03T12:07:34.669Z,990.1
2019-02-03T12:08:34.658Z,990.06
2019-02-03T12:09:34.646Z,990.13
2019-02-03T12:10:34.638Z,990.11
2019-02-03T12:11:34.715Z,990.12
2019-02-03T12:12:34.616Z,990.11
2019-02-03T12:13:34.605Z,990.08
2019-02-03T12:14:34.595Z,990.12
2019-02-03T12:15:34.585Z,990.07
2019-02-03T12:16:34.573Z,990.16
2019-02-03T12:17:34.561Z,990.19
2019-02-03T12:18:34.576Z,990.17
2019-02-03T12:19:34.541Z,990.14
2019-02-03T12:20:34.530Z,990.17
2019-02-03T12:21:34.521Z,990.12
2019-02-03T12:22:34.509Z,990.12
2019-02-03T12:23:34.498Z,990.18
2019-02-03T12:24:34.494Z,990.18
2019-02-03T12:25:34.479Z,990.18
2019-02-03T12:26:36.374Z,990.2
2019-02-03T12:27:34.465Z,990.2
2019-02-03T12:28:34.447Z,990.23
2019-02-03T12:29:34.436Z,990.22
2019-02-03T12:30:34.425Z,990.23
2019-02-03T12:31:34.429Z,990.22